Time;durP1;ratioP1;P1;durP2;ratioP2;P2;SDS_P1;SDS_P2;PMS_P1;PMS_P2;Temp;Humidity;BMP_temperature;BMP_pressure;BME280_temperature;BME280_humidity;BME280_pressure;Samples;Min_cycle;Max_cycle;Signal;HPM_P1;HPM_P2
2021/08/01 00:00:47;;;;;;;8.55;4.60;;;;;;;13.60;100.00;93872.25;5071909;28;20040;-54
2021/08/01 00:03:13;;;;;;;8.52;6.75;;;;;;;13.60;100.00;93870.34;5072025;28;20021;-52
2021/08/01 00:06:01;;;;;;;9.85;7.47;;;;;;;13.62;100.00;93867.34;5071904;28;20031;-56
2021/08/01 00:08:29;;;;;;;7.82;5.30;;;;;;;13.63;100.00;93877.78;5053907;28;20111;-54
2021/08/01 00:10:57;;;;;;;6.68;3.95;;;;;;;13.66;100.00;93875.56;5053897;28;20119;-55
2021/08/01 00:13:29;;;;;;;7.60;4.25;;;;;;;13.66;100.00;93876.34;5053991;28;20456;-57
2021/08/01 00:15:54;;;;;;;5.90;4.50;;;;;;;13.66;100.00;93883.63;5076488;28;20020;-57
2021/08/01 00:18:28;;;;;;;6.13;4.20;;;;;;;13.65;100.00;93885.53;5091776;28;20027;-55
2021/08/01 00:20:57;;;;;;;7.57;4.00;;;;;;;13.67;100.00;93879.84;5083323;28;20382;-52
2021/08/01 00:23:27;;;;;;;6.35;4.20;;;;;;;13.69;100.00;93875.75;5075831;28;20020;-56
2021/08/01 00:25:53;;;;;;;7.78;4.18;;;;;;;13.70;100.00;93884.59;5076548;28;20028;-53
2021/08/01 00:28:18;;;;;;;6.60;4.30;;;;;;;13.68;100.00;93879.53;5077182;28;20034;-52
2021/08/01 00:30:44;;;;;;;10.73;4.88;;;;;;;13.66;100.00;93879.03;5095175;28;20124;-52
2021/08/01 00:33:27;;;;;;;5.45;4.20;;;;;;;13.64;100.00;93868.59;5084040;28;20447;-53
2021/08/01 00:35:52;;;;;;;6.93;4.30;;;;;;;13.62;100.00;93873.50;5094777;28;20020;-57
2021/08/01 00:38:17;;;;;;;5.30;4.32;;;;;;;13.59;100.00;93867.97;5095135;28;20035;-55
2021/08/01 00:40:45;;;;;;;7.63;4.97;;;;;;;13.58;100.00;93867.16;5094905;28;20016;-55
2021/08/01 00:43:16;;;;;;;6.15;4.78;;;;;;;13.57;100.00;93857.53;5094741;28;20028;-55
2021/08/01 00:45:44;;;;;;;6.97;4.43;;;;;;;13.56;100.00;93853.22;5076426;28;20020;-52
2021/08/01 00:48:13;;;;;;;9.48;5.22;;;;;;;13.54;100.00;93862.72;5075550;28;20420;-54
2021/08/01 00:50:40;;;;;;;5.63;4.40;;;;;;;13.52;100.00;93854.16;5091868;28;20440;-54
2021/08/01 00:53:07;;;;;;;5.35;4.30;;;;;;;13.50;100.00;93848.31;5094779;28;20446;-54
2021/08/01 00:55:33;;;;;;;6.85;5.18;;;;;;;13.48;100.00;93848.63;5094341;28;20411;-53
2021/08/01 00:58:01;;;;;;;6.20;4.35;;;;;;;13.47;100.00;93848.94;5094804;28;20017;-52
2021/08/01 01:00:56;;;;;;;6.80;4.85;;;;;;;13.46;100.00;93839.25;5094531;28;20394;-52
2021/08/01 01:03:29;;;;;;;7.88;4.75;;;;;;;13.45;100.00;93841.16;5094643;28;20073;-52
2021/08/01 01:06:02;;;;;;;6.55;5.07;;;;;;;13.45;100.00;93838.47;5094205;28;20025;-52
2021/08/01 01:08:33;;;;;;;;;;;;;;;13.45;100.00;93837.69;5094981;28;20103;-51
2021/08/01 01:11:05;;;;;;;6.95;4.60;;;;;;;13.42;100.00;93833.72;5094408;28;20260;-50
2021/08/01 01:13:37;;;;;;;;;;;;;;;13.41;100.00;93820.59;5076686;28;20051;-50
2021/08/01 01:16:09;;;;;;;6.53;4.25;;;;;;;13.39;100.00;93810.16;5062238;28;20387;-51
2021/08/01 01:18:48;;;;;;;6.20;3.97;;;;;;;13.35;100.00;93798.44;5076647;28;20048;-52
2021/08/01 01:21:32;;;;;;;6.50;4.53;;;;;;;13.34;100.00;93789.56;5094252;28;20024;-53
2021/08/01 01:24:08;;;;;;;8.07;3.97;;;;;;;13.30;100.00;93775.16;5091197;28;20055;-55
2021/08/01 01:26:48;;;;;;;5.85;4.10;;;;;;;13.28;100.00;93773.91;5094585;28;20543;-54
2021/08/01 01:29:51;;;;;;;6.15;3.90;;;;;;;13.21;100.00;93763.59;5093183;28;20154;-52
2021/08/01 01:32:43;;;;;;;6.13;4.20;;;;;;;13.20;100.00;93761.22;5093892;28;20023;-51
2021/08/01 01:35:18;;;;;;;5.65;4.05;;;;;;;13.18;100.00;93752.66;5090481;28;20043;-52
2021/08/01 01:37:49;;;;;;;4.65;3.72;;;;;;;13.17;100.00;93745.69;5087565;28;20031;-55
2021/08/01 01:40:19;;;;;;;9.23;4.15;;;;;;;13.07;100.00;93744.09;5093809;28;20490;-52
2021/08/01 01:42:55;;;;;;;4.38;3.30;;;;;;;13.03;100.00;93751.22;5093767;28;20483;-51
2021/08/01 01:45:22;;;;;;;4.68;3.58;;;;;;;12.96;100.00;93753.56;5093179;28;20056;-55
2021/08/01 01:47:50;;;;;;;4.63;3.53;;;;;;;12.96;100.00;93767.00;5094063;28;20499;-56
2021/08/01 01:50:17;;;;;;;7.60;3.30;;;;;;;12.94;100.00;93772.69;5079378;28;20068;-55
2021/08/01 01:52:52;;;;;;;6.25;3.58;;;;;;;12.93;100.00;93783.75;5093818;28;20016;-53
2021/08/01 01:55:28;;;;;;;3.53;3.08;;;;;;;12.92;100.00;93792.91;5074901;28;20058;-53
2021/08/01 01:57:56;;;;;;;5.15;3.10;;;;;;;12.92;100.00;93799.09;5093663;28;20489;-50
2021/08/01 02:00:22;;;;;;;5.05;3.65;;;;;;;12.91;100.00;93802.84;5093428;28;20486;-54
2021/08/01 02:02:47;;;;;;;6.20;3.60;;;;;;;12.92;100.00;93806.34;5075473;28;20028;-57
2021/08/01 02:05:25;;;;;;;7.55;3.70;;;;;;;12.89;100.00;93799.69;5074841;28;20024;-56
2021/08/01 02:07:53;;;;;;;5.53;3.42;;;;;;;12.89;100.00;93796.19;5093272;28;20024;-57
2021/08/01 02:10:54;;;;;;;4.43;3.33;;;;;;;12.89;100.00;93798.88;5075197;28;20475;-55
2021/08/01 02:13:29;;;;;;;6.13;3.88;;;;;;;12.84;100.00;93781.03;5093036;28;20020;-52
2021/08/01 02:15:57;;;;;;;18.63;4.43;;;;;;;12.82;100.00;93788.59;5084794;28;20028;-52
2021/08/01 02:18:50;;;;;;;6.63;3.40;;;;;;;12.82;100.00;93796.66;5068627;28;20044;-51
2021/08/01 02:21:25;;;;;;;4.47;3.60;;;;;;;12.83;100.00;93798.25;5074890;28;20028;-55
2021/08/01 02:23:57;;;;;;;4.80;3.58;;;;;;;12.83;100.00;93800.94;5074700;28;20031;-58
2021/08/01 02:26:24;;;;;;;7.10;4.15;;;;;;;12.84;100.00;93799.03;5075330;28;20032;-56
2021/08/01 02:28:54;;;;;;;6.30;3.67;;;;;;;12.83;100.00;93779.44;5092845;28;20498;-56
2021/08/01 02:31:20;;;;;;;6.95;3.78;;;;;;;12.85;100.00;93771.06;5093030;28;20020;-57
2021/08/01 02:33:46;;;;;;;4.30;3.35;;;;;;;12.84;100.00;93777.53;5092521;28;20028;-57
2021/08/01 02:36:13;;;;;;;4.72;3.55;;;;;;;12.83;100.00;93784.03;5093087;28;20027;-54
2021/08/01 02:38:44;;;;;;;5.65;3.65;;;;;;;12.80;100.00;93782.72;5092985;28;20027;-52
2021/08/01 02:41:28;;;;;;;5.63;3.90;;;;;;;12.77;100.00;93783.34;5092698;28;20024;-53
2021/08/01 02:44:01;;;;;;;5.70;3.83;;;;;;;12.77;100.00;93780.66;5074007;28;20044;-54
2021/08/01 02:46:32;;;;;;;6.30;3.65;;;;;;;12.76;100.00;93790.63;5092581;28;20035;-54
2021/08/01 02:49:01;;;;;;;4.53;3.53;;;;;;;12.75;100.00;93782.88;5092533;28;20026;-50
2021/08/01 02:51:36;;;;;;;5.00;3.70;;;;;;;12.72;100.00;93781.59;5092388;28;20066;-53
2021/08/01 02:54:08;;;;;;;4.72;3.45;;;;;;;12.71;100.00;93779.22;5092055;28;20091;-52
2021/08/01 02:56:35;;;;;;;4.80;3.47;;;;;;;12.69;100.00;93768.78;5092477;28;20497;-53
2021/08/01 02:59:04;;;;;;;4.80;3.63;;;;;;;12.69;100.00;93774.13;5092383;28;20035;-50
2021/08/01 03:01:34;;;;;;;3.75;2.75;;;;;;;12.68;100.00;93779.81;5092356;28;20368;-54
2021/08/01 03:04:00;;;;;;;3.10;2.80;;;;;;;12.67;100.00;93780.94;5091766;28;20391;-52
2021/08/01 03:06:32;;;;;;;3.42;2.63;;;;;;;12.65;100.00;93775.88;5092375;28;20031;-57
2021/08/01 03:09:06;;;;;;;4.88;3.17;;;;;;;12.63;100.00;93774.59;5092050;28;20077;-58
2021/08/01 03:11:37;;;;;;;3.72;2.78;;;;;;;12.59;100.00;93779.81;5092286;28;20032;-58
2021/08/01 03:14:03;;;;;;;2.85;2.40;;;;;;;12.57;100.00;93775.81;5073935;28;20131;-52
2021/08/01 03:16:29;;;;;;;5.43;3.00;;;;;;;12.54;100.00;93776.44;5061049;28;20069;-57
2021/08/01 03:19:00;;;;;;;3.95;2.50;;;;;;;12.52;100.00;93779.44;5089775;28;20030;-58
2021/08/01 03:21:28;;;;;;;3.22;2.72;;;;;;;12.51;100.00;93777.06;5079980;28;20032;-53
2021/08/01 03:23:53;;;;;;;3.28;2.47;;;;;;;12.49;100.00;93785.44;5071338;28;20082;-58
2021/08/01 03:26:26;;;;;;;3.17;2.78;;;;;;;12.46;100.00;93788.72;5071708;28;20510;-58
2021/08/01 03:28:57;;;;;;;7.13;2.78;;;;;;;12.44;100.00;93777.50;5071617;28;20498;-57
2021/08/01 03:31:22;;;;;;;5.28;2.75;;;;;;;12.40;100.00;93781.91;5071694;28;20075;-54
2021/08/01 03:33:48;;;;;;;5.95;2.92;;;;;;;12.38;100.00;93779.53;5071232;28;20475;-58
2021/08/01 03:36:13;;;;;;;3.03;2.50;;;;;;;12.36;100.00;93787.09;5071530;28;20024;-57
2021/08/01 03:39:02;;;;;;;4.07;2.58;;;;;;;12.35;100.00;93788.19;5071756;28;20020;-54
2021/08/01 03:41:30;;;;;;;5.55;2.45;;;;;;;12.33;100.00;93793.09;5071457;28;20559;-58
2021/08/01 03:43:58;;;;;;;7.25;2.95;;;;;;;12.34;100.00;93785.81;5070677;28;20454;-56
2021/08/01 03:46:25;;;;;;;4.50;2.45;;;;;;;12.34;100.00;93788.50;5053664;28;20479;-57
2021/08/01 03:48:51;;;;;;;4.05;2.90;;;;;;;12.33;100.00;93787.72;5061394;28;20028;-54
2021/08/01 03:51:21;;;;;;;4.07;2.67;;;;;;;12.31;100.00;93787.22;5083120;28;20046;-56
2021/08/01 03:53:47;;;;;;;4.85;2.58;;;;;;;12.29;100.00;93792.13;5070891;28;20541;-57
2021/08/01 03:56:12;;;;;;;3.97;2.72;;;;;;;12.28;100.00;93790.53;5071692;28;20024;-54
2021/08/01 03:58:37;;;;;;;4.13;2.63;;;;;;;12.27;100.00;93793.53;5071464;28;20387;-55
2021/08/01 04:01:03;;;;;;;3.55;2.75;;;;;;;12.24;100.00;93781.50;5086719;28;20024;-53
2021/08/01 04:03:28;;;;;;;4.55;2.88;;;;;;;12.23;100.00;93782.59;5071382;28;20085;-52
2021/08/01 04:06:00;;;;;;;3.72;2.50;;;;;;;12.23;100.00;93785.28;5070755;28;20020;-54
2021/08/01 04:08:28;;;;;;;3.28;2.70;;;;;;;12.23;100.00;93787.16;5071177;28;20032;-57
2021/08/01 04:10:53;;;;;;;6.50;2.72;;;;;;;12.23;100.00;93792.53;5071015;28;20035;-52
2021/08/01 04:13:19;;;;;;;5.50;2.45;;;;;;;12.22;100.00;93791.75;5071359;28;20024;-56
2021/08/01 04:15:51;;;;;;;5.05;2.80;;;;;;;12.21;100.00;93790.16;5081244;28;20047;-59
2021/08/01 04:18:16;;;;;;;3.50;2.50;;;;;;;12.19;100.00;93784.31;5068008;28;20078;-59
2021/08/01 04:20:47;;;;;;;3.78;2.60;;;;;;;12.19;100.00;93790.47;5087307;28;20490;-59
2021/08/01 04:23:12;;;;;;;4.55;2.55;;;;;;;12.18;100.00;93786.22;5082129;28;20363;-59
2021/08/01 04:25:40;;;;;;;3.90;2.50;;;;;;;12.20;100.00;93785.91;5092005;28;20023;-57
2021/08/01 04:28:06;;;;;;;2.70;2.30;;;;;;;12.21;100.00;93786.69;5091880;28;20032;-59
2021/08/01 04:30:44;;;;;;;3.00;2.70;;;;;;;12.23;100.00;93787.16;5090331;28;20072;-59
2021/08/01 04:33:13;;;;;;;3.83;2.75;;;;;;;12.25;100.00;93784.97;5084226;28;20109;-59
2021/08/01 04:35:44;;;;;;;2.85;2.50;;;;;;;12.25;100.00;93791.13;5091831;28;20080;-59
2021/08/01 04:38:13;;;;;;;4.65;2.83;;;;;;;12.28;100.00;93789.75;5074259;28;20101;-59
2021/08/01 04:40:41;;;;;;;4.43;2.80;;;;;;;12.28;100.00;93789.75;5057481;28;20084;-59
2021/08/01 04:43:06;;;;;;;4.25;2.10;;;;;;;12.29;100.00;93794.00;5091974;28;20080;-59
2021/08/01 04:45:35;;;;;;;2.75;2.45;;;;;;;12.28;100.00;93790.53;5073583;28;20394;-57
2021/08/01 04:48:00;;;;;;;2.38;2.15;;;;;;;12.29;100.00;93794.00;5087805;28;20403;-51
2021/08/01 04:50:26;;;;;;;2.72;2.00;;;;;;;12.30;100.00;93801.75;5091709;28;20020;-51
2021/08/01 04:53:06;;;;;;;4.13;2.30;;;;;;;12.32;100.00;93798.75;5073890;28;20428;-56
2021/08/01 04:55:44;;;;;;;3.60;2.10;;;;;;;12.32;100.00;93796.06;5092138;28;20345;-56
2021/08/01 04:58:09;;;;;;;4.18;2.10;;;;;;;12.31;100.00;93800.66;5073691;28;20024;-54
2021/08/01 05:00:44;;;;;;;2.72;2.30;;;;;;;12.30;100.00;93795.59;5056796;28;20031;-52
2021/08/01 05:03:17;;;;;;;3.55;2.30;;;;;;;12.27;100.00;93791.63;5091754;28;20037;-53
2021/08/01 05:05:47;;;;;;;4.63;2.17;;;;;;;12.28;100.00;93789.75;5095262;28;20031;-57
2021/08/01 05:08:12;;;;;;;2.58;2.08;;;;;;;12.27;100.00;93790.84;5077195;28;20020;-55
2021/08/01 05:10:38;;;;;;;4.38;2.33;;;;;;;12.25;100.00;93793.81;5095233;28;20360;-54
2021/08/01 05:13:07;;;;;;;3.28;2.30;;;;;;;12.26;100.00;93791.91;5095139;28;20031;-54
2021/08/01 05:15:33;;;;;;;2.03;1.80;;;;;;;12.25;100.00;93791.13;5081317;28;20020;-56
2021/08/01 05:18:01;;;;;;;3.28;1.92;;;;;;;12.24;100.00;93788.75;5095187;28;20456;-55
2021/08/01 05:20:31;;;;;;;2.67;2.08;;;;;;;12.25;100.00;93798.38;5094997;28;20020;-52
2021/08/01 05:22:56;;;;;;;2.58;2.10;;;;;;;12.25;100.00;93790.34;5093855;28;20032;-52
2021/08/01 05:25:31;;;;;;;3.88;2.22;;;;;;;12.26;100.00;93791.91;5095266;28;20028;-53
2021/08/01 05:28:06;;;;;;;2.58;2.22;;;;;;;12.27;100.00;93788.16;5076811;28;20383;-55
2021/08/01 05:30:34;;;;;;;4.82;2.00;;;;;;;12.30;100.00;93791.00;5094770;28;20028;-56
2021/08/01 05:33:07;;;;;;;2.10;1.70;;;;;;;12.31;100.00;93792.59;5094917;28;20043;-58
2021/08/01 05:35:38;;;;;;;2.85;2.00;;;;;;;12.32;100.00;93790.72;5094949;28;20544;-57
2021/08/01 05:38:04;;;;;;;4.13;2.20;;;;;;;12.33;100.00;93794.97;5076321;28;20036;-56
2021/08/01 05:40:42;;;;;;;3.00;2.22;;;;;;;12.33;100.00;93792.28;5094641;28;20035;-57
2021/08/01 05:43:11;;;;;;;4.30;2.20;;;;;;;12.34;100.00;93786.59;5094869;28;20081;-57
2021/08/01 05:45:43;;;;;;;2.72;2.35;;;;;;;12.36;100.00;93787.09;5074458;28;20498;-54
2021/08/01 05:48:09;;;;;;;2.25;2.03;;;;;;;12.38;100.00;93779.53;5070243;28;20392;-57
2021/08/01 05:50:34;;;;;;;2.65;1.83;;;;;;;12.40;100.00;93776.53;5065080;28;20037;-55
2021/08/01 05:53:05;;;;;;;2.78;1.98;;;;;;;12.43;100.00;93775.91;5074266;28;20451;-59
2021/08/01 05:55:31;;;;;;;2.20;2.00;;;;;;;12.45;100.00;93768.34;5074406;28;20016;-59
2021/08/01 05:58:01;;;;;;;2.78;2.00;;;;;;;12.48;100.00;93775.78;5074063;28;20506;-55
2021/08/01 06:00:29;;;;;;;2.20;2.00;;;;;;;12.50;100.00;93770.13;5074106;28;20020;-57
2021/08/01 06:03:00;;;;;;;5.55;2.10;;;;;;;12.52;100.00;93773.28;5074005;28;20028;-56
2021/08/01 06:05:36;;;;;;;4.32;2.22;;;;;;;12.55;100.00;93769.97;5056287;28;20029;-59
2021/08/01 06:08:01;;;;;;;4.57;2.08;;;;;;;12.57;100.00;93765.88;5074089;28;20166;-59
2021/08/01 06:10:29;;;;;;;3.72;2.10;;;;;;;12.60;100.00;93770.66;5073835;28;20119;-59
2021/08/01 06:12:57;;;;;;;2.67;1.98;;;;;;;12.64;100.00;93774.28;5073961;28;20158;-58
2021/08/01 06:18:10;;;;;;;3.53;2.08;;;;;;;12.70;100.00;93774.97;5068388;28;20028;-60
2021/08/01 06:20:36;;;;;;;2.45;2.20;;;;;;;12.74;100.00;93786.66;5073706;28;20020;-58
2021/08/01 06:23:01;;;;;;;2.30;2.10;;;;;;;12.77;100.00;93783.34;5055739;28;20032;-59
2021/08/01 06:25:31;;;;;;;2.33;2.10;;;;;;;12.75;100.00;93782.88;5055815;28;20024;-59
2021/08/01 06:27:56;;;;;;;2.00;1.80;;;;;;;12.75;100.00;93783.66;5073389;28;20024;-59
2021/08/01 06:30:25;;;;;;;2.65;1.67;;;;;;;12.77;100.00;93792.19;5073391;28;20048;-57
2021/08/01 06:32:58;;;;;;;2.22;1.70;;;;;;;12.82;100.00;93793.97;5056044;28;20055;-55
2021/08/01 06:35:23;;;;;;;3.95;2.10;;;;;;;12.81;100.00;93795.09;5073463;28;20463;-55
2021/08/01 06:37:54;;;;;;;2.25;1.73;;;;;;;12.81;100.00;93794.25;5073426;28;20043;-60
2021/08/01 06:40:19;;;;;;;5.30;2.55;;;;;;;12.82;100.00;93793.97;5055625;28;20032;-60
2021/08/01 06:42:47;;;;;;;3.85;2.60;;;;;;;12.85;100.00;93796.03;5073176;28;20032;-60
2021/08/01 06:45:12;;;;;;;3.53;2.90;;;;;;;12.87;100.00;93804.56;5073199;28;20070;-60
2021/08/01 06:47:38;;;;;;;3.85;3.45;;;;;;;12.87;100.00;93801.09;5072904;28;20542;-59
2021/08/01 06:50:08;;;;;;;3.58;2.67;;;;;;;12.85;100.00;93814.06;5073129;28;20025;-58
2021/08/01 06:52:35;;;;;;;3.03;2.72;;;;;;;12.85;100.00;93819.44;5073029;28;20041;-58
2021/08/01 06:55:02;;;;;;;5.05;2.50;;;;;;;12.79;100.00;93826.81;5072941;28;20021;-59
2021/08/01 06:57:28;;;;;;;3.28;2.25;;;;;;;12.72;100.00;93835.34;5055000;28;20059;-57
2021/08/01 06:59:55;;;;;;;2.63;2.33;;;;;;;12.72;100.00;93846.09;5038375;28;20059;-58
2021/08/01 07:02:21;;;;;;;2.20;2.00;;;;;;;12.72;100.00;93846.09;5072859;28;20368;-57
2021/08/01 07:04:46;;;;;;;3.22;1.90;;;;;;;12.71;100.00;93843.72;5054966;28;20066;-53
2021/08/01 07:07:14;;;;;;;4.18;2.20;;;;;;;12.71;100.00;93843.72;5072763;28;20047;-57
2021/08/01 07:09:40;;;;;;;3.22;1.95;;;;;;;12.74;100.00;93851.16;5054656;28;20093;-59
2021/08/01 07:12:16;;;;;;;2.53;2.08;;;;;;;12.76;100.00;93851.63;5072738;28;20031;-58
2021/08/01 07:14:51;;;;;;;4.30;1.90;;;;;;;12.75;100.00;93850.84;5053939;28;20029;-57
2021/08/01 07:17:21;;;;;;;4.80;1.90;;;;;;;12.76;100.00;93852.41;5047626;28;20021;-59
2021/08/01 07:19:50;;;;;;;1.98;1.70;;;;;;;12.80;100.00;93847.22;5072536;28;20029;-58
2021/08/01 07:22:15;;;;;;;2.15;1.92;;;;;;;12.82;100.00;93847.72;5072354;28;20052;-53
2021/08/01 07:24:54;;;;;;;3.40;2.30;;;;;;;12.83;100.00;93861.94;5072419;28;20151;-56
2021/08/01 07:27:19;;;;;;;4.05;2.03;;;;;;;12.81;100.00;93856.06;5071917;28;20115;-52
2021/08/01 07:29:45;;;;;;;1.90;1.63;;;;;;;12.77;100.00;93854.00;5072123;28;20610;-55
2021/08/01 07:32:13;;;;;;;2.25;1.85;;;;;;;12.75;100.00;93850.84;5072467;28;20031;-54
2021/08/01 07:34:44;;;;;;;2.42;1.65;;;;;;;12.75;100.00;93858.91;5072239;28;20114;-55
2021/08/01 07:37:09;;;;;;;3.15;1.80;;;;;;;12.74;100.00;93848.47;5072394;28;20515;-57
2021/08/01 07:39:34;;;;;;;2.85;1.70;;;;;;;12.76;100.00;93852.41;5072250;28;20163;-59
2021/08/01 07:42:00;;;;;;;2.47;1.50;;;;;;;12.78;100.00;93852.09;5072365;28;20403;-54
2021/08/01 07:44:28;;;;;;;1.75;1.65;;;;;;;12.82;100.00;93847.72;5072118;28;20083;-54
2021/08/01 07:46:57;;;;;;;3.53;2.03;;;;;;;12.87;100.00;93852.94;5072250;28;20066;-52
2021/08/01 07:49:22;;;;;;;2.72;1.90;;;;;;;12.89;100.00;93858.00;5071967;28;20032;-55
2021/08/01 07:51:48;;;;;;;3.03;2.08;;;;;;;12.89;100.00;93868.75;5072364;28;20032;-57
2021/08/01 07:54:13;;;;;;;2.22;1.92;;;;;;;12.91;100.00;93861.16;5072312;28;20029;-52
2021/08/01 07:56:39;;;;;;;2.65;2.33;;;;;;;12.91;100.00;93863.88;5072164;28;20442;-59
2021/08/01 07:59:04;;;;;;;2.40;2.00;;;;;;;12.90;100.00;93871.13;5054280;28;20048;-60
2021/08/01 08:01:29;;;;;;;5.82;2.88;;;;;;;12.91;100.00;93867.34;5072182;28;20078;-59
2021/08/01 08:03:55;;;;;;;2.83;2.13;;;;;;;12.95;100.00;93872.91;5072105;28;20463;-54
2021/08/01 08:06:20;;;;;;;4.07;2.63;;;;;;;12.94;100.00;93869.44;5072060;28;20025;-54
2021/08/01 08:08:48;;;;;;;3.55;2.53;;;;;;;12.93;100.00;93870.53;5071816;28;20033;-53
2021/08/01 08:11:13;;;;;;;4.68;2.83;;;;;;;12.93;100.00;93875.91;5071942;28;20070;-54
2021/08/01 08:13:41;;;;;;;3.08;2.60;;;;;;;12.99;100.00;93863.91;5071907;28;20017;-54
2021/08/01 08:16:10;;;;;;;3.90;2.90;;;;;;;13.05;100.00;93868.06;5059323;28;20063;-54
2021/08/01 08:18:35;;;;;;;3.10;2.75;;;;;;;13.09;100.00;93865.53;5070158;28;20029;-52
2021/08/01 08:21:01;;;;;;;2.83;2.63;;;;;;;13.08;100.00;93874.72;5071804;28;20399;-52
2021/08/01 08:23:26;;;;;;;2.58;2.38;;;;;;;13.09;100.00;93876.28;5071873;28;20024;-58
2021/08/01 08:25:57;;;;;;;4.03;2.80;;;;;;;13.09;100.00;93876.28;5062091;28;20067;-59
2021/08/01 08:28:22;;;;;;;2.35;1.95;;;;;;;13.08;100.00;93872.03;5070144;28;20044;-59
2021/08/01 08:30:48;;;;;;;3.83;2.00;;;;;;;13.10;100.00;93869.03;5053744;28;20024;-59
2021/08/01 08:33:16;;;;;;;2.20;2.00;;;;;;;13.14;100.00;93864.63;5053902;28;20529;-59
2021/08/01 08:35:44;;;;;;;2.30;2.00;;;;;;;13.18;100.00;93870.97;5071975;28;20387;-59
2021/08/01 08:38:15;;;;;;;2.22;1.80;;;;;;;13.19;100.00;93872.56;5055450;28;20024;-59
2021/08/01 08:40:40;;;;;;;5.68;1.98;;;;;;;13.20;100.00;93869.56;5075728;28;20025;-59
2021/08/01 08:43:12;;;;;;;2.47;1.95;;;;;;;13.27;100.00;93874.50;5057610;28;20086;-56
2021/08/01 08:45:43;;;;;;;2.22;2.00;;;;;;;13.31;100.00;93880.84;5075456;28;20495;-53
2021/08/01 08:48:11;;;;;;;3.17;2.15;;;;;;;13.36;100.00;93872.66;5075732;28;20395;-51
2021/08/01 08:50:55;;;;;;;4.45;2.55;;;;;;;13.42;100.00;93874.06;5075338;28;20028;-54
2021/08/01 08:53:28;;;;;;;3.78;2.25;;;;;;;13.44;100.00;93873.75;5075654;28;20020;-53
2021/08/01 08:55:54;;;;;;;4.13;2.60;;;;;;;13.50;100.00;93870.63;5075478;28;20029;-53
2021/08/01 08:58:23;;;;;;;3.45;3.15;;;;;;;13.53;100.00;93879.97;5075406;28;20032;-59
2021/08/01 09:00:52;;;;;;;4.68;2.85;;;;;;;13.48;100.00;93880.13;5075426;28;20024;-59
2021/08/01 09:03:29;;;;;;;3.63;2.78;;;;;;;13.42;100.00;93876.75;5057373;28;20475;-59
2021/08/01 09:05:59;;;;;;;3.10;2.50;;;;;;;13.43;100.00;93886.41;5057323;28;20039;-59
2021/08/01 09:08:25;;;;;;;2.35;2.10;;;;;;;13.48;100.00;93883.59;5075251;28;20052;-59
2021/08/01 09:10:54;;;;;;;2.75;2.10;;;;;;;13.43;100.00;93891.00;5075151;28;20058;-59
2021/08/01 09:13:54;;;;;;;2.65;2.10;;;;;;;13.44;100.00;93893.38;5075127;28;20035;-60
2021/08/01 09:16:39;;;;;;;2.35;1.80;;;;;;;13.48;100.00;93890.88;5042874;28;20029;-59
2021/08/01 09:19:39;;;;;;;2.33;1.80;;;;;;;13.47;100.00;93889.28;5037150;28;20063;-60
2021/08/01 09:22:13;;;;;;;4.43;2.70;;;;;;;13.54;100.00;93889.63;5050784;28;20372;-60
2021/08/01 09:24:46;;;;;;;3.15;2.60;;;;;;;13.65;100.00;93880.16;5074877;28;20032;-59
2021/08/01 09:27:34;;;;;;;3.35;2.70;;;;;;;13.65;100.00;93893.59;5074922;28;20082;-60
2021/08/01 09:30:00;;;;;;;3.30;2.45;;;;;;;13.64;100.00;93890.13;5074836;28;20018;-60
2021/08/01 09:32:29;;;;;;;3.00;2.38;;;;;;;13.64;100.00;93892.03;5074786;28;20476;-60
2021/08/01 09:34:55;;;;;;;5.03;2.92;;;;;;;13.69;100.00;93899.16;5074772;28;20549;-59
2021/08/01 09:37:34;;;;;;;4.45;2.60;;;;;;;13.65;100.00;93901.69;5074719;28;20032;-60
2021/08/01 09:40:14;;;;;;;3.50;2.33;;;;;;;13.57;100.00;93910.53;5073280;28;20021;-60
2021/08/01 09:42:40;;;;;;;4.00;3.03;;;;;;;13.56;100.00;93904.34;5074776;28;20051;-55
2021/08/01 09:45:21;;;;;;;4.30;2.70;;;;;;;13.46;100.00;93909.19;5060705;28;20412;-53
2021/08/01 09:47:50;;;;;;;3.22;2.00;;;;;;;13.48;100.00;93909.72;5074898;28;20384;-59
2021/08/01 09:50:17;;;;;;;3.97;2.95;;;;;;;13.52;100.00;93903.38;5074779;28;20442;-55
2021/08/01 09:52:46;;;;;;;2.65;2.17;;;;;;;13.43;100.00;93907.16;5056829;28;20021;-55
2021/08/01 09:55:19;;;;;;;3.05;2.30;;;;;;;13.45;100.00;93907.63;5056201;28;20024;-58
2021/08/01 09:57:57;;;;;;;2.47;2.28;;;;;;;13.45;100.00;93913.78;5056260;28;20028;-60
2021/08/01 10:00:29;;;;;;;4.65;2.40;;;;;;;13.33;100.00;93914.38;5074212;28;20380;-60
2021/08/01 10:03:02;;;;;;;3.92;2.35;;;;;;;13.36;100.00;93912.19;5056389;28;20416;-60
2021/08/01 10:05:35;;;;;;;4.47;2.63;;;;;;;13.41;100.00;93906.66;5074279;28;20035;-60
2021/08/01 10:08:08;;;;;;;2.60;2.30;;;;;;;13.42;100.00;93911.72;5074287;28;20099;-60
2021/08/01 10:10:33;;;;;;;4.78;2.33;;;;;;;13.42;100.00;93909.03;5056947;28;20479;-60
2021/08/01 10:13:01;;;;;;;3.05;2.60;;;;;;;13.43;100.00;93917.91;5039505;28;20087;-54
2021/08/01 10:15:31;;;;;;;3.33;2.70;;;;;;;13.40;100.00;93911.25;5067218;28;20023;-54
2021/08/01 10:17:57;;;;;;;2.30;2.10;;;;;;;13.48;100.00;93905.13;5066874;28;20016;-56
2021/08/01 10:20:37;;;;;;;4.30;2.40;;;;;;;13.53;100.00;93904.97;5055827;28;20445;-57
2021/08/01 10:23:03;;;;;;;4.20;2.28;;;;;;;13.54;100.00;93911.94;5055649;28;20028;-58
2021/08/01 10:25:39;;;;;;;3.60;2.40;;;;;;;13.56;100.00;93907.03;5055787;28;20476;-56
2021/08/01 10:28:06;;;;;;;2.67;2.28;;;;;;;13.65;100.00;93901.69;5055718;28;20072;-60
2021/08/01 10:30:37;;;;;;;2.92;2.60;;;;;;;13.70;100.00;93908.81;5073567;28;20021;-60
2021/08/01 10:33:08;;;;;;;5.07;2.53;;;;;;;13.75;100.00;93898.69;5073518;28;20035;-60
2021/08/01 10:35:44;;;;;;;4.35;2.60;;;;;;;13.86;100.00;93899.19;5065240;28;20452;-60
2021/08/01 10:38:16;;;;;;;3.20;2.60;;;;;;;14.00;100.00;93897.19;5073338;28;20040;-60
2021/08/01 10:40:50;;;;;;;3.10;2.80;;;;;;;14.10;100.00;93891.47;5073573;28;20467;-60
2021/08/01 10:43:29;;;;;;;8.25;2.88;;;;;;;14.40;100.00;93883.56;5073242;28;20429;-56
2021/08/01 10:45:58;;;;;;;3.42;2.80;;;;;;;14.54;100.00;93876.13;5055381;28;20024;-58
2021/08/01 10:48:26;;;;;;;3.65;2.53;;;;;;;14.52;100.00;93875.66;5073176;28;20020;-55
2021/08/01 10:50:53;;;;;;;3.80;2.75;;;;;;;14.73;100.00;93867.69;5073045;28;20016;-58
2021/08/01 10:53:18;;;;;;;4.15;2.95;;;;;;;14.68;100.00;93863.28;5073123;28;20020;-57
2021/08/01 10:55:43;;;;;;;4.35;2.80;;;;;;;14.85;100.00;93857.03;5055117;28;20078;-55
2021/08/01 10:58:18;;;;;;;3.50;2.75;;;;;;;14.88;100.00;93851.03;5072947;28;20040;-60
2021/08/01 11:00:56;;;;;;;3.30;2.22;;;;;;;15.00;100.00;93848.47;5072092;28;20112;-59
2021/08/01 11:03:33;;;;;;;3.83;2.75;;;;;;;14.95;100.00;93848.63;5072803;28;20114;-55
2021/08/01 11:06:01;;;;;;;3.75;2.40;;;;;;;14.93;100.00;93845.44;5054892;28;20024;-58
2021/08/01 11:08:29;;;;;;;3.65;2.30;;;;;;;15.02;100.00;93845.44;5072757;28;20454;-58
2021/08/01 11:11:09;;;;;;;5.15;2.25;;;;;;;15.07;100.00;93840.63;5072766;28;20021;-59
2021/08/01 11:13:45;;;;;;;3.78;2.30;;;;;;;15.09;100.00;93832.25;5072595;28;20027;-54
2021/08/01 11:16:42;;;;;;;3.30;2.55;;;;;;;15.16;100.00;93839.81;5059600;28;20448;-59
2021/08/01 11:19:37;;;;;;;3.88;2.47;;;;;;;15.31;100.00;93823.13;5052649;28;20028;-58
2021/08/01 11:22:05;;;;;;;3.35;2.15;;;;;;;15.34;100.00;93822.47;5052590;28;20024;-59
2021/08/01 11:24:34;;;;;;;2.92;2.17;;;;;;;15.40;100.00;93820.34;5052447;28;20025;-58
2021/08/01 11:27:08;;;;;;;2.20;2.00;;;;;;;15.61;100.00;93808.50;5052393;28;20095;-59
2021/08/01 11:30:02;;;;;;;2.47;2.28;;;;;;;15.93;100.00;93792.72;5034506;28;20408;-58
2021/08/01 11:32:29;;;;;;;3.67;2.20;;;;;;;16.04;100.00;93791.22;5053017;28;20357;-56
2021/08/01 11:35:14;;;;;;;4.05;2.50;;;;;;;16.23;100.00;93769.13;5052556;28;20083;-56
2021/08/01 11:37:40;;;;;;;3.95;2.45;;;;;;;16.28;100.00;93766.25;5052339;28;20419;-58
2021/08/01 11:40:09;;;;;;;2.85;2.40;;;;;;;16.50;100.00;93754.25;5052337;28;20039;-58
2021/08/01 11:42:34;;;;;;;2.95;2.03;;;;;;;16.61;100.00;93741.91;5052249;28;20020;-57
2021/08/01 11:45:06;;;;;;;4.28;2.30;;;;;;;16.63;100.00;93747.75;5081653;28;20055;-60